createdAt,value
2019-02-09T00:01:36.583Z,87.06
2019-02-09T00:04:05.472Z,87.02
2019-02-09T00:06:34.240Z,87.10
2019-02-09T00:09:03.033Z,87.39
2019-02-09T00:11:31.819Z,87.06
2019-02-09T00:14:00.608Z,87.19
2019-02-09T00:16:29.396Z,87.22
2019-02-09T00:18:58.175Z,87.00
2019-02-09T00:21:26.952Z,87.29
2019-02-09T00:23:55.733Z,87.01
2019-02-09T00:26:24.514Z,87.06
2019-02-09T00:28:53.312Z,86.93
2019-02-09T00:31:22.095Z,86.76
2019-02-09T00:33:50.895Z,86.99
2019-02-09T00:36:19.691Z,87.05
2019-02-09T00:38:48.469Z,86.85
2019-02-09T00:41:17.267Z,86.92
2019-02-09T00:43:46.093Z,86.99
2019-02-09T00:46:14.894Z,86.69
2019-02-09T00:48:43.722Z,86.94
2019-02-09T00:51:12.515Z,86.35
2019-02-09T00:53:41.335Z,86.50
2019-02-09T00:56:10.127Z,86.46
2019-02-09T00:58:38.906Z,86.47
2019-02-09T01:01:07.694Z,86.40
2019-02-09T01:03:36.496Z,86.29
2019-02-09T01:06:05.356Z,86.25
2019-02-09T01:08:34.179Z,85.79
2019-02-09T01:11:03.007Z,86.11
2019-02-09T01:13:31.792Z,86.05
2019-02-09T01:16:00.583Z,86.37
2019-02-09T01:18:29.357Z,86.02
2019-02-09T01:20:58.186Z,86.22
2019-02-09T01:23:26.954Z,85.79
2019-02-09T01:25:55.743Z,86.07
2019-02-09T01:28:24.528Z,86.15
2019-02-09T01:30:53.353Z,86.24
2019-02-09T01:33:22.152Z,86.21
2019-02-09T01:35:50.936Z,86.29
2019-02-09T01:38:19.726Z,86.15
2019-02-09T01:40:48.520Z,86.22
2019-02-09T01:43:17.321Z,86.19
2019-02-09T01:45:46.084Z,86.35
2019-02-09T01:48:14.991Z,86.01
2019-02-09T01:50:43.774Z,85.93
2019-02-09T01:53:12.649Z,85.86
2019-02-09T01:55:41.457Z,85.83
2019-02-09T01:58:10.248Z,86.02
2019-02-09T02:00:39.071Z,86.08
2019-02-09T02:03:07.874Z,86.23
2019-02-09T02:05:36.647Z,86.25
2019-02-09T02:08:05.402Z,86.37
2019-02-09T02:10:35.816Z,86.24
2019-02-09T02:13:06.040Z,86.13
2019-02-09T02:15:34.830Z,86.30
2019-02-09T02:18:03.662Z,85.92
2019-02-09T02:20:33.335Z,86.63
2019-02-09T02:23:02.135Z,86.25
2019-02-09T02:25:30.931Z,86.45
2019-02-09T02:27:59.708Z,86.83
2019-02-09T02:30:30.312Z,86.71
2019-02-09T02:32:59.094Z,86.76
2019-02-09T02:35:27.891Z,87.03
2019-02-09T02:37:56.753Z,85.79
2019-02-09T02:40:25.544Z,85.67
2019-02-09T02:42:54.305Z,85.67
2019-02-09T02:45:23.145Z,85.71
2019-02-09T02:47:51.931Z,85.40
2019-02-09T02:50:20.801Z,85.33
2019-02-09T02:52:49.571Z,84.80
2019-02-09T02:55:21.188Z,84.72
2019-02-09T02:57:51.513Z,84.59
2019-02-09T03:00:30.999Z,84.75
2019-02-09T03:02:51.164Z,84.44
2019-02-09T03:05:20.570Z,84.12
2019-02-09T03:07:49.411Z,84.26
2019-02-09T03:10:18.275Z,84.08
2019-02-09T03:12:47.051Z,84.52
2019-02-09T03:15:18.888Z,84.21
2019-02-09T03:17:47.696Z,84.83
2019-02-09T03:20:17.368Z,84.84
2019-02-09T03:22:46.217Z,85.38
2019-02-09T03:25:17.417Z,85.28
2019-02-09T03:27:46.222Z,85.95
2019-02-09T03:30:15.788Z,86.21
2019-02-09T03:32:44.609Z,86.21
2019-02-09T03:35:13.661Z,86.57
2019-02-09T03:37:42.514Z,87.03
2019-02-09T03:40:13.691Z,86.97
2019-02-09T03:42:42.486Z,87.08
2019-02-09T03:45:14.767Z,86.95
2019-02-09T03:47:43.555Z,87.19
2019-02-09T03:50:12.967Z,87.49
2019-02-09T03:52:41.776Z,87.17
2019-02-09T03:55:10.563Z,86.98
2019-02-09T03:57:39.347Z,86.28
2019-02-09T04:00:11.391Z,86.52
2019-02-09T04:02:40.166Z,86.18
2019-02-09T04:05:09.458Z,86.04
2019-02-09T04:07:38.295Z,86.13
2019-02-09T04:10:08.060Z,85.46
2019-02-09T04:12:36.845Z,85.83
2019-02-09T04:15:07.116Z,85.43
2019-02-09T04:17:35.914Z,85.43
2019-02-09T04:20:06.466Z,85.69
2019-02-09T04:22:35.322Z,85.61
2019-02-09T04:25:04.623Z,85.18
2019-02-09T04:27:33.419Z,85.24
2019-02-09T04:30:02.276Z,85.48
2019-02-09T04:32:31.062Z,85.21
2019-02-09T04:34:59.838Z,84.96
2019-02-09T04:37:28.774Z,85.17
2019-02-09T04:39:57.553Z,84.99
2019-02-09T04:42:26.394Z,85.33
2019-02-09T04:45:01.956Z,84.73
2019-02-09T04:47:30.808Z,84.98
2019-02-09T04:49:59.664Z,84.72
2019-02-09T04:52:28.518Z,84.60
2019-02-09T04:54:57.315Z,84.44
2019-02-09T04:57:26.145Z,84.73
2019-02-09T04:59:54.931Z,84.23
2019-02-09T05:02:23.733Z,84.37
2019-02-09T05:04:52.531Z,84.30
2019-02-09T05:07:21.312Z,83.92
2019-02-09T05:09:50.117Z,83.59
2019-02-09T05:12:18.970Z,83.84
2019-02-09T05:14:47.855Z,83.44
2019-02-09T05:17:16.718Z,83.00
2019-02-09T05:19:45.554Z,82.51
2019-02-09T05:22:14.454Z,82.87
2019-02-09T05:24:43.238Z,82.95
2019-02-09T05:27:12.037Z,82.79
2019-02-09T05:29:40.822Z,82.47
2019-02-09T05:32:09.618Z,82.53
2019-02-09T05:34:38.407Z,81.93
2019-02-09T05:37:10.967Z,82.31
2019-02-09T05:39:39.761Z,81.94
2019-02-09T05:42:08.555Z,81.65
2019-02-09T05:44:37.381Z,81.49
2019-02-09T05:47:06.189Z,81.31
2019-02-09T05:49:35.006Z,81.35
2019-02-09T05:52:03.797Z,81.71
2019-02-09T05:54:32.567Z,80.86
2019-02-09T05:57:01.335Z,80.44
2019-02-09T05:59:30.458Z,81.00
2019-02-09T06:01:59.272Z,80.84
2019-02-09T06:04:28.063Z,80.86
2019-02-09T06:06:56.870Z,81.08
2019-02-09T06:09:25.666Z,81.12
2019-02-09T06:11:54.479Z,81.20
2019-02-09T06:14:23.280Z,81.04
2019-02-09T06:16:52.121Z,81.61
2019-02-09T06:19:20.883Z,81.21
2019-02-09T06:21:49.667Z,81.10
2019-02-09T06:24:18.532Z,80.73
2019-02-09T06:26:47.356Z,80.88
2019-02-09T06:29:16.222Z,80.94
2019-02-09T06:31:44.971Z,80.71
2019-02-09T06:34:13.808Z,80.97
2019-02-09T06:36:42.600Z,81.15
2019-02-09T06:39:11.389Z,80.44
2019-02-09T06:41:41.501Z,80.65
2019-02-09T06:44:10.316Z,80.56
2019-02-09T06:46:39.084Z,80.81
2019-02-09T06:49:07.880Z,81.08
2019-02-09T06:51:36.683Z,80.29
2019-02-09T06:54:05.568Z,80.34
2019-02-09T06:56:34.351Z,79.82
2019-02-09T06:59:03.162Z,79.86
2019-02-09T07:01:31.971Z,79.85
2019-02-09T07:04:00.803Z,80.34
2019-02-09T07:06:29.693Z,79.95
2019-02-09T07:08:58.468Z,80.41
2019-02-09T07:11:27.257Z,80.01
2019-02-09T07:13:56.031Z,80.17
2019-02-09T07:16:24.868Z,80.26
2019-02-09T07:18:53.642Z,79.96
2019-02-09T07:21:22.483Z,80.55
2019-02-09T07:23:51.271Z,79.42
2019-02-09T07:26:20.052Z,79.92
2019-02-09T07:31:22.854Z,79.63
2019-02-09T07:33:51.670Z,79.83
2019-02-09T07:36:20.987Z,79.92
2019-02-09T07:38:49.824Z,79.82
2019-02-09T07:41:18.628Z,79.25
2019-02-09T07:43:47.465Z,79.63
2019-02-09T07:46:17.899Z,79.75
2019-02-09T07:48:46.732Z,79.90
2019-02-09T07:51:16.361Z,78.87
2019-02-09T07:53:45.136Z,79.18
2019-02-09T07:56:13.971Z,79.86
2019-02-09T07:58:43.380Z,79.26
2019-02-09T08:01:12.232Z,79.02
2019-02-09T08:03:41.071Z,78.70
2019-02-09T08:06:09.947Z,78.49
2019-02-09T08:08:38.773Z,78.63
2019-02-09T08:11:09.272Z,78.67
2019-02-09T08:13:36.406Z,78.34
2019-02-09T08:16:05.205Z,78.01
2019-02-09T08:18:34.590Z,78.27
2019-02-09T08:21:03.424Z,78.13
2019-02-09T08:23:32.270Z,78.02
2019-02-09T08:26:01.140Z,77.97
2019-02-09T08:28:29.942Z,77.87
2019-02-09T08:30:58.734Z,78.10
2019-02-09T08:33:27.531Z,77.78
2019-02-09T08:35:56.318Z,77.66
2019-02-09T08:38:25.146Z,77.72
2019-02-09T08:40:53.992Z,77.64
2019-02-09T08:43:22.851Z,77.60
2019-02-09T08:45:51.740Z,77.37
2019-02-09T08:48:20.523Z,76.85
2019-02-09T08:50:55.302Z,76.73
2019-02-09T08:53:24.173Z,76.36
2019-02-09T08:55:52.955Z,76.07
2019-02-09T08:58:21.744Z,76.04
2019-02-09T09:00:50.585Z,76.24
2019-02-09T09:03:19.483Z,76.06
2019-02-09T09:05:48.283Z,75.89
2019-02-09T09:08:17.078Z,76.20
2019-02-09T09:10:45.919Z,76.11
2019-02-09T09:13:14.799Z,75.87
2019-02-09T09:15:47.983Z,75.92
2019-02-09T09:18:16.770Z,76.31
2019-02-09T09:20:48.536Z,76.19
2019-02-09T09:23:17.411Z,75.58
2019-02-09T09:25:46.207Z,75.32
2019-02-09T09:28:15.000Z,75.35
2019-02-09T09:30:43.807Z,75.20
2019-02-09T09:33:12.572Z,75.56
2019-02-09T09:35:41.393Z,75.30
2019-02-09T09:38:10.195Z,75.03
2019-02-09T09:40:40.266Z,75.30
2019-02-09T09:43:09.079Z,75.11
2019-02-09T09:45:38.435Z,75.52
2019-02-09T09:48:08.899Z,75.16
2019-02-09T09:50:37.690Z,74.89
2019-02-09T09:53:06.503Z,75.30
2019-02-09T09:55:35.308Z,75.34
2019-02-09T09:58:04.405Z,75.00
2019-02-09T10:00:33.164Z,73.63
2019-02-09T10:03:01.963Z,73.45
2019-02-09T10:05:30.821Z,73.41
2019-02-09T10:07:59.667Z,73.88
2019-02-09T10:10:28.450Z,73.08
2019-02-09T10:12:57.325Z,72.81
2019-02-09T10:15:26.143Z,72.93
2019-02-09T10:17:54.941Z,72.47
2019-02-09T10:20:24.304Z,72.25
2019-02-09T10:22:53.231Z,71.79
2019-02-09T10:25:22.044Z,72.17
2019-02-09T10:27:51.039Z,72.05
2019-02-09T10:30:21.700Z,71.50
2019-02-09T10:32:50.556Z,70.98
2019-02-09T10:35:20.451Z,70.47
2019-02-09T10:37:49.256Z,70.16
2019-02-09T10:40:20.207Z,70.68
2019-02-09T10:42:48.999Z,70.30
2019-02-09T10:45:19.955Z,69.91
2019-02-09T10:47:50.277Z,70.38
2019-02-09T10:50:22.657Z,69.72
2019-02-09T10:52:51.451Z,69.67
2019-02-09T10:55:20.297Z,69.63
2019-02-09T10:57:50.229Z,69.60
2019-02-09T11:00:22.087Z,69.69
2019-02-09T11:02:52.293Z,69.68
2019-02-09T11:05:19.691Z,69.42
2019-02-09T11:07:48.581Z,69.44
2019-02-09T11:13:27.276Z,69.63
2019-02-09T11:15:56.182Z,70.46
2019-02-09T11:18:25.009Z,69.82
2019-02-09T11:20:53.923Z,68.88
2019-02-09T11:23:25.042Z,68.04
2019-02-09T11:25:53.940Z,67.98
2019-02-09T11:28:23.302Z,66.82
2019-02-09T11:33:54.944Z,66.78
2019-02-09T11:39:14.786Z,65.86
2019-02-09T11:41:43.607Z,64.65
2019-02-09T11:44:12.419Z,63.55
2019-02-09T11:46:41.263Z,62.54
2019-02-09T11:49:10.100Z,61.76
2019-02-09T11:51:39.463Z,62.53
2019-02-09T11:54:08.241Z,62.84
2019-02-09T11:56:37.658Z,62.70
2019-02-09T11:59:06.430Z,63.38
2019-02-09T12:01:36.211Z,62.27
2019-02-09T12:04:05.267Z,61.82
2019-02-09T12:06:34.785Z,62.76
2019-02-09T12:09:05.142Z,63.05
2019-02-09T12:11:33.967Z,63.47
2019-02-09T12:14:02.806Z,63.98
2019-02-09T12:16:31.646Z,64.01
2019-02-09T12:19:00.460Z,62.99
2019-02-09T12:21:30.678Z,62.06
2019-02-09T12:24:00.420Z,62.95
2019-02-09T12:26:29.252Z,63.35
2019-02-09T12:28:58.071Z,63.23
2019-02-09T12:31:26.850Z,62.52
2019-02-09T12:33:55.695Z,62.51
2019-02-09T12:36:24.983Z,62.22
2019-02-09T12:38:53.760Z,61.54
2019-02-09T12:41:22.577Z,62.37
2019-02-09T12:43:52.055Z,61.90
2019-02-09T12:46:21.865Z,63.46
2019-02-09T12:48:50.689Z,63.53
2019-02-09T12:51:19.474Z,62.74
2019-02-09T12:53:48.328Z,63.30
2019-02-09T12:56:17.895Z,64.00
2019-02-09T12:58:46.674Z,64.62
2019-02-09T13:01:15.524Z,64.35
2019-02-09T13:03:45.303Z,64.89
2019-02-09T13:06:14.618Z,64.69
2019-02-09T13:08:43.443Z,64.75
2019-02-09T13:11:12.291Z,64.59
2019-02-09T13:13:41.154Z,64.29
2019-02-09T13:16:10.702Z,63.96
2019-02-09T13:18:40.362Z,63.97
2019-02-09T13:21:10.136Z,63.90
2019-02-09T13:23:39.704Z,63.33
2019-02-09T13:26:09.171Z,63.38
2019-02-09T13:28:38.024Z,63.31
2019-02-09T13:31:06.831Z,63.63
2019-02-09T13:33:38.989Z,63.49
2019-02-09T13:36:06.917Z,62.70
2019-02-09T13:38:34.725Z,62.83
2019-02-09T13:41:04.339Z,62.67
2019-02-09T13:43:33.931Z,62.84
2019-02-09T13:46:03.586Z,62.80
2019-02-09T13:48:32.378Z,63.12
2019-02-09T13:51:01.203Z,62.88
2019-02-09T13:53:30.000Z,63.36
2019-02-09T13:55:58.870Z,63.79
2019-02-09T13:58:27.863Z,63.79
2019-02-09T14:00:56.652Z,63.94
2019-02-09T14:03:26.022Z,63.46
2019-02-09T14:05:54.849Z,63.64
2019-02-09T14:08:23.658Z,63.26
2019-02-09T14:10:52.458Z,63.55
2019-02-09T14:13:22.519Z,61.92
2019-02-09T14:15:52.538Z,62.80
2019-02-09T14:18:21.338Z,62.50
2019-02-09T14:20:50.784Z,62.53
2019-02-09T14:23:20.563Z,62.38
2019-02-09T14:25:49.419Z,62.36
2019-02-09T14:28:18.228Z,63.34
2019-02-09T14:30:47.589Z,62.42
2019-02-09T14:33:16.507Z,61.92
2019-02-09T14:35:45.297Z,62.34
2019-02-09T14:38:14.570Z,62.75
2019-02-09T14:40:44.288Z,63.11
2019-02-09T14:43:13.608Z,62.25
2019-02-09T14:45:43.560Z,63.06
2019-02-09T14:48:13.902Z,62.04
2019-02-09T14:50:43.278Z,62.10
2019-02-09T14:53:12.126Z,61.90
2019-02-09T14:55:40.912Z,62.42
2019-02-09T14:58:09.734Z,62.18
2019-02-09T15:00:40.907Z,62.10
2019-02-09T15:03:10.103Z,61.86
2019-02-09T15:05:39.576Z,62.29
2019-02-09T15:08:09.201Z,62.18
2019-02-09T15:10:38.063Z,61.59
2019-02-09T15:13:08.151Z,61.91
2019-02-09T15:15:42.932Z,61.44
2019-02-09T15:18:11.751Z,61.37
2019-02-09T15:20:44.108Z,61.23
2019-02-09T15:23:12.903Z,61.42
2019-02-09T15:25:42.425Z,61.43
2019-02-09T15:28:12.545Z,61.68
2019-02-09T15:30:40.087Z,61.09
2019-02-09T15:33:10.155Z,61.79
2019-02-09T15:35:38.956Z,61.37
2019-02-09T15:38:07.788Z,62.01
2019-02-09T15:40:37.326Z,62.07
2019-02-09T15:43:06.105Z,62.52
2019-02-09T15:45:34.924Z,62.60
2019-02-09T15:48:03.926Z,62.67
2019-02-09T15:50:33.396Z,62.62
2019-02-09T15:53:02.331Z,63.50
2019-02-09T15:55:31.182Z,63.64
2019-02-09T15:58:01.114Z,63.46
2019-02-09T16:00:29.909Z,63.69
2019-02-09T16:02:58.706Z,64.09
2019-02-09T16:05:27.500Z,63.91
2019-02-09T16:07:57.088Z,64.39
2019-02-09T16:10:25.927Z,64.41
2019-02-09T16:13:01.504Z,64.69
2019-02-09T16:15:35.074Z,65.10
2019-02-09T16:18:03.874Z,65.12
2019-02-09T16:20:32.836Z,65.38
2019-02-09T16:23:01.611Z,65.54
2019-02-09T16:25:30.408Z,65.84
2019-02-09T16:27:59.272Z,65.82
2019-02-09T16:30:28.132Z,65.81
2019-02-09T16:32:57.730Z,66.12
2019-02-09T16:35:26.551Z,66.65
2019-02-09T16:37:56.758Z,66.64
2019-02-09T16:40:26.935Z,66.88
2019-02-09T16:42:56.275Z,66.76
2019-02-09T16:45:28.099Z,67.07
2019-02-09T16:47:56.887Z,67.16
2019-02-09T16:50:25.703Z,67.37
2019-02-09T16:52:54.536Z,67.50
2019-02-09T16:55:23.330Z,67.58
2019-02-09T16:57:52.169Z,67.91
2019-02-09T17:00:26.867Z,67.90
2019-02-09T17:02:55.729Z,68.42
2019-02-09T17:05:24.630Z,68.43
2019-02-09T17:07:53.419Z,68.54
2019-02-09T17:10:22.333Z,68.53
2019-02-09T17:12:51.126Z,68.71
2019-02-09T17:15:21.348Z,68.77
2019-02-09T17:17:50.227Z,69.03
2019-02-09T17:20:19.195Z,68.88
2019-02-09T17:22:47.995Z,68.81
2019-02-09T17:25:16.977Z,69.33
2019-02-09T17:27:45.786Z,69.11
2019-02-09T17:30:20.296Z,69.44
2019-02-09T17:32:49.358Z,69.64
2019-02-09T17:35:18.243Z,69.55
2019-02-09T17:37:47.059Z,69.52
2019-02-09T17:40:18.059Z,69.76
2019-02-09T17:42:53.190Z,69.31
2019-02-09T17:45:19.478Z,69.58
2019-02-09T17:47:48.279Z,69.56
2019-02-09T17:50:17.079Z,69.50
2019-02-09T17:52:45.870Z,69.80
2019-02-09T17:55:15.737Z,69.94
2019-02-09T17:57:45.423Z,69.83
2019-02-09T18:00:17.686Z,70.13
2019-02-09T18:02:46.483Z,70.22
2019-02-09T18:05:15.275Z,70.32
2019-02-09T18:07:44.838Z,70.38
2019-02-09T18:10:14.978Z,70.87
2019-02-09T18:12:44.347Z,71.42
2019-02-09T18:15:14.823Z,71.22
2019-02-09T18:17:43.619Z,71.41
2019-02-09T18:20:13.380Z,71.20
2019-02-09T18:22:42.171Z,71.37
2019-02-09T18:25:12.634Z,71.65
2019-02-09T18:27:41.441Z,71.87
2019-02-09T18:30:13.646Z,71.97
2019-02-09T18:32:42.487Z,71.84
2019-02-09T18:35:11.459Z,71.85
2019-02-09T18:37:40.256Z,71.63
2019-02-09T18:40:11.451Z,71.61
2019-02-09T18:42:40.511Z,71.65
2019-02-09T18:45:10.626Z,71.45
2019-02-09T18:47:39.425Z,71.42
2019-02-09T18:50:10.201Z,71.66
2019-02-09T18:52:39.037Z,71.36
2019-02-09T18:55:08.703Z,71.32
2019-02-09T18:57:37.567Z,71.85
2019-02-09T19:00:06.814Z,71.74
2019-02-09T19:02:38.521Z,71.35
2019-02-09T19:05:04.832Z,71.49
2019-02-09T19:07:33.565Z,71.52
2019-02-09T19:10:02.406Z,71.57
2019-02-09T19:12:31.231Z,71.83
2019-02-09T19:15:00.819Z,71.58
2019-02-09T19:17:30.627Z,71.40
2019-02-09T19:20:01.127Z,71.19
2019-02-09T19:22:29.959Z,71.53
2019-02-09T19:24:59.243Z,71.52
2019-02-09T19:27:28.098Z,71.57
2019-02-09T19:29:56.946Z,71.57
2019-02-09T19:32:26.441Z,71.55
2019-02-09T19:34:55.252Z,71.49
2019-02-09T19:37:24.104Z,71.60
2019-02-09T19:39:53.184Z,71.52
2019-02-09T19:42:22.012Z,71.55
2019-02-09T19:44:50.884Z,71.81
2019-02-09T19:47:19.711Z,71.92
2019-02-09T19:49:48.523Z,72.15
2019-02-09T19:52:17.883Z,72.90
2019-02-09T19:54:47.347Z,72.12
2019-02-09T19:57:17.875Z,72.52
2019-02-09T19:59:47.998Z,72.16
2019-02-09T20:02:19.264Z,72.14
2019-02-09T20:04:55.371Z,72.53
2019-02-09T20:07:45.648Z,72.60
2019-02-09T20:10:17.717Z,72.73
2019-02-09T20:12:46.516Z,72.55
2019-02-09T20:15:15.331Z,73.00
2019-02-09T20:17:44.127Z,73.23
2019-02-09T20:20:13.257Z,73.16
2019-02-09T20:22:42.148Z,73.58
2019-02-09T20:25:13.858Z,73.75
2019-02-09T20:27:42.677Z,73.97
2019-02-09T20:30:15.478Z,73.81
2019-02-09T20:32:44.266Z,73.81
2019-02-09T20:35:13.803Z,74.17
2019-02-09T20:37:42.694Z,74.25
2019-02-09T20:40:17.522Z,74.07
2019-02-09T20:42:46.360Z,74.19
2019-02-09T20:45:15.200Z,74.44
2019-02-09T20:47:48.645Z,74.12
2019-02-09T20:50:12.828Z,74.40
2019-02-09T20:52:41.690Z,74.09
2019-02-09T20:55:10.535Z,74.32
2019-02-09T20:57:39.394Z,74.34
2019-02-09T21:00:18.050Z,74.17
2019-02-09T21:02:40.310Z,74.39
2019-02-09T21:05:10.186Z,74.26
2019-02-09T21:07:38.982Z,74.58
2019-02-09T21:10:13.104Z,74.65
2019-02-09T21:12:42.047Z,74.58
2019-02-09T21:15:11.155Z,74.52
2019-02-09T21:17:40.070Z,74.46
2019-02-09T21:20:10.190Z,74.78
2019-02-09T21:22:38.993Z,74.51
2019-02-09T21:25:10.912Z,74.71
2019-02-09T21:27:39.696Z,74.91
2019-02-09T21:30:09.375Z,74.70
2019-02-09T21:32:40.346Z,74.20
2019-02-09T21:35:08.076Z,75.03
2019-02-09T21:37:36.918Z,74.71
2019-02-09T21:40:07.873Z,75.08
2019-02-09T21:42:37.348Z,75.27
2019-02-09T21:45:07.806Z,74.85
2019-02-09T21:47:36.595Z,75.00
2019-02-09T21:50:06.476Z,75.01
2019-02-09T21:52:35.250Z,74.96
2019-02-09T21:55:05.360Z,75.02
2019-02-09T21:57:34.268Z,75.33
2019-02-09T22:00:03.043Z,75.38
2019-02-09T22:02:31.928Z,75.69
2019-02-09T22:05:00.710Z,75.55
2019-02-09T22:07:30.245Z,75.58
2019-02-09T22:09:59.060Z,75.81
2019-02-09T22:12:28.344Z,75.73
2019-02-09T22:14:57.230Z,76.11
2019-02-09T22:17:26.025Z,76.20
2019-02-09T22:19:54.711Z,76.12
2019-02-09T22:22:23.509Z,76.29
2019-02-09T22:24:52.480Z,76.24
2019-02-09T22:27:21.185Z,76.08
2019-02-09T22:29:50.320Z,76.22
2019-02-09T22:32:19.120Z,76.41
2019-02-09T22:34:49.458Z,76.10
2019-02-09T22:37:18.392Z,76.45
2019-02-09T22:39:48.449Z,76.22
2019-02-09T22:42:17.168Z,76.42
2019-02-09T22:44:46.219Z,76.38
2019-02-09T22:47:15.048Z,76.36
2019-02-09T22:49:43.836Z,76.64
2019-02-09T22:52:12.730Z,76.74
2019-02-09T22:54:42.342Z,76.80
2019-02-09T22:57:12.076Z,77.13
2019-02-09T22:59:42.627Z,76.63
2019-02-09T23:02:11.468Z,76.67
2019-02-09T23:04:56.843Z,76.53
2019-02-09T23:07:31.716Z,76.84
2019-02-09T23:10:02.836Z,76.73
2019-02-09T23:12:31.616Z,76.91
2019-02-09T23:15:00.409Z,76.78
2019-02-09T23:17:29.308Z,76.56
2019-02-09T23:19:58.079Z,76.68
2019-02-09T23:22:26.975Z,76.50
2019-02-09T23:24:55.754Z,76.78
2019-02-09T23:27:24.539Z,76.44
2019-02-09T23:29:53.388Z,76.62
2019-02-09T23:32:22.162Z,76.71
2019-02-09T23:34:50.933Z,76.59
2019-02-09T23:37:19.747Z,76.66
2019-02-09T23:39:48.651Z,76.96
2019-02-09T23:42:17.690Z,76.97
2019-02-09T23:44:46.492Z,76.75
2019-02-09T23:47:15.267Z,76.97
2019-02-09T23:49:44.067Z,77.04
2019-02-09T23:52:12.907Z,76.91
2019-02-09T23:54:41.718Z,77.06
2019-02-09T23:57:10.506Z,76.99
2019-02-09T23:59:39.397Z,76.95
